X  Schlie├čen METAR Luftfahrt Wetterdaten     EDDC Dresden Airport
Temperatur
14°C Temperatur
13°C Taupunkt
94% Feuchtigkeit



Wind
10 KM/S
6 MPS
3 M/S
5 KTS



120°
OSO
Aktuelle Wetterlage

Meistens vereinzelte Wolken Meistens vereinzelte Wolken
Luftdruck 1018.92 (hPa) - 30.09 (inHg)
Sichtweite 6.2 (Meile) - 10 (Km)
Flughafen
Flughafen Code EDDC

Position : Dresden Airport
Entfernung: 117 (Km)

Metar:
EDDC 290250Z 12005KT 9999 SCT005 OVC019 14/13 Q1019

Zeit: 29-09-2021 04:50 CEST